createdAt,value
2022-11-05T00:02:04.511Z,99595.81
2022-11-05T00:04:50.003Z,99598.78
2022-11-05T00:10:07.479Z,99597.88
2022-11-05T00:12:52.781Z,99599.72
2022-11-05T00:15:41.740Z,99601.28
2022-11-05T00:18:08.426Z,99606.44
2022-11-05T00:20:35.058Z,99607.16
2022-11-05T00:23:20.827Z,99603.56
2022-11-05T00:38:53.059Z,99626.31
2022-11-05T00:41:19.745Z,99627.19
2022-11-05T00:44:04.904Z,99631.50
2022-11-05T00:46:31.590Z,99630.66
2022-11-05T00:49:16.925Z,99630.66
2022-11-05T00:51:43.583Z,99631.84
2022-11-05T00:54:10.156Z,99644.56
2022-11-05T00:56:36.783Z,99645.41
2022-11-05T00:59:03.474Z,99651.44
2022-11-05T01:01:30.231Z,99646.03
2022-11-05T01:03:56.961Z,99658.31
2022-11-05T01:06:23.372Z,99655.16
2022-11-05T01:08:49.686Z,99657.38
2022-11-05T01:11:36.929Z,99663.75
2022-11-05T01:14:08.113Z,99660.91
2022-11-05T01:16:35.032Z,99667.47
2022-11-05T01:19:01.742Z,99666.88
2022-11-05T01:21:28.129Z,99665.19
2022-11-05T01:23:57.012Z,99661.66
2022-11-05T01:26:23.338Z,99665.88
2022-11-05T01:28:53.188Z,99666.41
2022-11-05T01:31:19.859Z,99677.97
2022-11-05T01:33:46.176Z,99670.34
2022-11-05T01:36:12.582Z,99675.53
2022-11-05T01:38:38.926Z,99677.34
2022-11-05T01:41:05.414Z,99677.22
2022-11-05T01:43:48.778Z,99672.75
2022-11-05T01:46:16.113Z,99673.63
2022-11-05T01:48:42.444Z,99675.31
2022-11-05T01:51:09.808Z,99679.63
2022-11-05T01:53:36.194Z,99683.66
2022-11-05T01:56:12.959Z,99686.19
2022-11-05T01:58:48.673Z,99692.22
2022-11-05T02:01:15.762Z,99695.81
2022-11-05T02:03:42.475Z,99695.00
2022-11-05T02:06:14.491Z,99696.66
2022-11-05T02:09:00.193Z,99700.28
2022-11-05T02:11:26.868Z,99702.19
2022-11-05T02:13:53.546Z,99703.44
2022-11-05T02:16:40.787Z,99715.97
2022-11-05T02:19:13.686Z,99717.03
2022-11-05T02:21:55.529Z,99709.91
2022-11-05T02:24:48.321Z,99709.81
2022-11-05T02:27:22.106Z,99709.91
2022-11-05T02:29:54.843Z,99710.25
2022-11-05T02:32:33.576Z,99721.78
2022-11-05T02:35:04.202Z,99715.88
2022-11-05T02:37:42.515Z,99715.03
2022-11-05T02:40:17.212Z,99714.16
2022-11-05T02:42:51.363Z,99722.97
2022-11-05T02:45:28.257Z,99720.31
2022-11-05T02:48:03.910Z,99725.50
2022-11-05T02:50:32.103Z,99723.81
2022-11-05T02:53:02.876Z,99728.34
2022-11-05T02:55:36.853Z,99729.41
2022-11-05T02:58:04.377Z,99732.03
2022-11-05T03:00:49.556Z,99733.75
2022-11-05T03:03:25.824Z,99734.38
2022-11-05T03:06:01.260Z,99733.63
2022-11-05T03:08:46.367Z,99737.97
2022-11-05T03:11:17.942Z,99744.97
2022-11-05T03:13:48.175Z,99749.41
2022-11-05T03:16:31.507Z,99751.09
2022-11-05T03:19:04.561Z,99750.03
2022-11-05T03:21:38.622Z,99746.53
2022-11-05T03:24:13.852Z,99755.22
2022-11-05T03:26:46.710Z,99761.34
2022-11-05T03:29:14.523Z,99762.19
2022-11-05T03:31:41.074Z,99765.47
2022-11-05T03:34:07.842Z,99775.22
2022-11-05T03:36:37.650Z,99769.94
2022-11-05T03:39:05.397Z,99778.81
2022-11-05T03:41:32.211Z,99777.09
2022-11-05T03:43:58.900Z,99782.50
2022-11-05T03:46:33.006Z,99779.66
2022-11-05T03:49:00.285Z,99785.06
2022-11-05T03:51:30.044Z,99785.16
2022-11-05T03:53:58.239Z,99787.06
2022-11-05T03:56:32.078Z,99795.97
2022-11-05T03:58:59.390Z,99799.44
2022-11-05T04:01:28.249Z,99798.69
2022-11-05T04:03:54.909Z,99795.44
2022-11-05T04:06:39.880Z,99793.00
2022-11-05T04:09:25.275Z,99798.41
2022-11-05T04:12:10.539Z,99802.50
2022-11-05T04:14:39.637Z,99804.31
2022-11-05T04:17:06.314Z,99806.09
2022-11-05T04:19:54.182Z,99809.63
2022-11-05T04:22:39.610Z,99810.66
2022-11-05T04:25:06.233Z,99813.31
2022-11-05T04:27:33.046Z,99821.25
2022-11-05T04:30:18.130Z,99819.44
2022-11-05T04:33:11.390Z,99825.59
2022-11-05T04:35:45.021Z,99827.59
2022-11-05T04:38:15.321Z,99828.44
2022-11-05T04:40:41.955Z,99839.75
2022-11-05T04:43:34.704Z,99840.41
2022-11-05T04:46:01.322Z,99844.63
2022-11-05T04:48:27.919Z,99838.47
2022-11-05T04:50:54.450Z,99845.47
2022-11-05T04:53:21.061Z,99839.97
2022-11-05T04:55:47.595Z,99838.06
2022-11-05T04:58:14.312Z,99841.53
2022-11-05T05:00:41.002Z,99834.66
2022-11-05T05:03:07.789Z,99846.13
2022-11-05T05:05:34.541Z,99843.78
2022-11-05T05:08:01.852Z,99848.41
2022-11-05T05:10:28.353Z,99838.28
2022-11-05T05:12:57.319Z,99849.28
2022-11-05T05:15:23.915Z,99845.03
2022-11-05T05:17:51.702Z,99852.88
2022-11-05T05:20:37.093Z,99849.28
2022-11-05T05:23:03.729Z,99849.56
2022-11-05T05:25:30.563Z,99856.69
2022-11-05T05:27:58.136Z,99856.97
2022-11-05T05:30:24.941Z,99869.00
2022-11-05T05:32:51.700Z,99870.72
2022-11-05T05:35:18.243Z,99877.47
2022-11-05T05:37:44.923Z,99873.66
2022-11-05T05:40:14.203Z,99878.00
2022-11-05T05:42:43.445Z,99882.25
2022-11-05T05:45:14.614Z,99883.19
2022-11-05T05:47:41.353Z,99883.31
2022-11-05T05:50:08.203Z,99881.53
2022-11-05T05:52:34.860Z,99892.19
2022-11-05T05:55:01.365Z,99891.34
2022-11-05T05:57:28.207Z,99897.38
2022-11-05T05:59:54.868Z,99898.34
2022-11-05T06:02:22.870Z,99902.69
2022-11-05T06:04:49.591Z,99909.63
2022-11-05T06:07:16.190Z,99915.03
2022-11-05T06:09:42.825Z,99909.84
2022-11-05T06:12:09.550Z,99923.91
2022-11-05T06:14:36.079Z,99927.41
2022-11-05T06:17:02.835Z,99919.47
2022-11-05T06:19:29.736Z,99929.41
2022-11-05T06:21:58.283Z,99936.50
2022-11-05T06:24:25.054Z,99926.66
2022-11-05T06:26:51.821Z,99933.75
2022-11-05T06:29:18.497Z,99939.88
2022-11-05T06:31:45.140Z,99943.56
2022-11-05T06:34:12.840Z,99945.50
2022-11-05T06:36:40.256Z,99951.06
2022-11-05T06:39:11.089Z,99951.66
2022-11-05T06:41:56.867Z,99956.09
2022-11-05T06:44:24.459Z,99963.28
2022-11-05T06:46:53.478Z,99973.38
2022-11-05T06:49:22.376Z,99971.72
2022-11-05T06:51:49.231Z,99973.50
2022-11-05T06:54:15.933Z,99981.31
2022-11-05T06:56:42.774Z,99983.03
2022-11-05T06:59:09.382Z,99986.44
2022-11-05T07:01:35.950Z,99995.75
2022-11-05T07:04:02.373Z,99996.84
2022-11-05T07:06:33.021Z,99998.03
2022-11-05T07:09:02.159Z,100001.34
2022-11-05T07:11:28.482Z,100000.41
2022-11-05T07:13:54.783Z,100007.56
2022-11-05T07:16:21.082Z,100013.72
2022-11-05T07:18:47.441Z,100018.25
2022-11-05T07:21:13.747Z,100020.06
2022-11-05T07:23:40.047Z,100024.50
2022-11-05T07:26:06.399Z,100030.44
2022-11-05T07:28:32.708Z,100034.03
2022-11-05T07:30:59.108Z,100039.13
2022-11-05T07:33:25.762Z,100037.97
2022-11-05T07:35:52.059Z,100046.09
2022-11-05T07:38:19.242Z,100055.28
2022-11-05T07:40:45.530Z,100055.16
2022-11-05T07:43:12.135Z,100058.69
2022-11-05T07:45:38.725Z,100054.34
2022-11-05T07:48:05.288Z,100055.00
2022-11-05T07:50:32.461Z,100050.44
2022-11-05T07:53:10.274Z,100054.88
2022-11-05T07:55:36.819Z,100060.28
2022-11-05T07:58:03.226Z,100060.56
2022-11-05T08:00:29.723Z,100074.00
2022-11-05T08:02:59.623Z,100072.41
2022-11-05T08:05:29.010Z,100079.28
2022-11-05T08:07:55.527Z,100081.72
2022-11-05T08:10:22.515Z,100085.50
2022-11-05T08:12:48.837Z,100084.47
2022-11-05T08:15:15.125Z,100091.91
2022-11-05T08:17:41.982Z,100092.47
2022-11-05T08:20:08.645Z,100090.56
2022-11-05T08:22:34.946Z,100105.19
2022-11-05T08:25:05.662Z,100100.47
2022-11-05T08:27:33.211Z,100100.25
2022-11-05T08:29:59.566Z,100101.94
2022-11-05T08:32:25.906Z,100104.31
2022-11-05T08:34:52.200Z,100097.22
2022-11-05T08:37:18.502Z,100097.41
2022-11-05T08:39:44.847Z,100110.66
2022-11-05T08:42:11.426Z,100117.53
2022-11-05T08:44:37.735Z,100115.44
2022-11-05T08:47:04.033Z,100117.03
2022-11-05T08:49:30.361Z,100127.06
2022-11-05T08:51:56.673Z,100124.22
2022-11-05T08:54:22.980Z,100124.03
2022-11-05T08:56:49.538Z,100117.78
2022-11-05T08:59:15.846Z,100120.25
2022-11-05T09:01:42.247Z,100114.00
2022-11-05T09:04:08.711Z,100121.19
2022-11-05T09:06:35.014Z,100122.13
2022-11-05T09:09:01.320Z,100117.03
2022-11-05T09:11:49.564Z,100121.56
2022-11-05T09:14:13.907Z,100126.81
2022-11-05T09:16:41.877Z,100126.34
2022-11-05T09:19:08.213Z,100126.75
2022-11-05T09:21:34.650Z,100127.88
2022-11-05T09:24:00.945Z,100133.06
2022-11-05T09:26:27.358Z,100129.22
2022-11-05T09:28:53.964Z,100132.41
2022-11-05T09:31:20.333Z,100139.19
2022-11-05T09:33:46.614Z,100131.91
2022-11-05T09:36:12.935Z,100143.78
2022-11-05T09:38:39.258Z,100141.50
2022-11-05T09:41:16.826Z,100148.28
2022-11-05T09:43:50.697Z,100152.44
2022-11-05T09:46:30.154Z,100144.59
2022-11-05T09:48:57.686Z,100154.53
2022-11-05T09:51:24.450Z,100156.25
2022-11-05T09:53:51.282Z,100153.31
2022-11-05T09:56:27.461Z,100164.84
2022-11-05T09:58:59.822Z,100162.84
2022-11-05T10:01:31.411Z,100167.97
2022-11-05T10:03:58.556Z,100160.78
2022-11-05T10:06:25.624Z,100160.28
2022-11-05T10:08:54.695Z,100162.59
2022-11-05T10:11:23.953Z,100167.91
2022-11-05T10:13:58.540Z,100165.75
2022-11-05T10:16:26.370Z,100165.03
2022-11-05T10:18:54.243Z,100169.28
2022-11-05T10:21:37.796Z,100171.81
2022-11-05T10:24:12.113Z,100181.69
2022-11-05T10:26:38.438Z,100176.09
2022-11-05T10:29:04.713Z,100174.66
2022-11-05T10:31:35.662Z,100173.81
2022-11-05T10:34:02.561Z,100175.00
2022-11-05T10:36:34.004Z,100183.31
2022-11-05T10:39:20.593Z,100184.78
2022-11-05T10:41:47.077Z,100184.03
2022-11-05T10:44:25.413Z,100186.91
2022-11-05T10:47:10.265Z,100184.47
2022-11-05T10:49:46.033Z,100187.19
2022-11-05T10:52:32.011Z,100188.25
2022-11-05T10:55:02.310Z,100195.06
2022-11-05T10:57:31.602Z,100193.16
2022-11-05T11:00:16.595Z,100195.38
2022-11-05T11:02:43.256Z,100191.56
2022-11-05T11:05:19.981Z,100190.63
2022-11-05T11:07:52.162Z,100192.09
2022-11-05T11:10:19.299Z,100186.81
2022-11-05T11:12:45.593Z,100193.59
2022-11-05T11:15:15.903Z,100189.47
2022-11-05T11:17:42.226Z,100192.53
2022-11-05T11:20:27.194Z,100192.53
2022-11-05T11:22:59.619Z,100188.75
2022-11-05T11:25:30.333Z,100191.06
2022-11-05T11:27:56.697Z,100189.16
2022-11-05T11:30:23.033Z,100193.59
2022-11-05T11:32:49.420Z,100196.06
2022-11-05T11:35:20.495Z,100186.22
2022-11-05T11:37:46.792Z,100173.78
2022-11-05T11:40:16.034Z,100175.50
2022-11-05T11:42:45.341Z,100174.34
2022-11-05T11:45:16.026Z,100179.00
2022-11-05T11:47:43.039Z,100174.63
2022-11-05T11:50:14.085Z,100177.19
2022-11-05T11:52:40.381Z,100174.34
2022-11-05T11:55:12.793Z,100179.94
2022-11-05T11:57:46.323Z,100173.44
2022-11-05T12:00:12.868Z,100176.97
2022-11-05T12:02:43.190Z,100174.72
2022-11-05T12:05:35.961Z,100173.56
2022-11-05T12:08:15.579Z,100176.31
2022-11-05T12:10:48.961Z,100178.44
2022-11-05T12:13:18.226Z,100172.72
2022-11-05T12:15:50.422Z,100170.47
2022-11-05T12:18:25.959Z,100177.75
2022-11-05T12:21:06.349Z,100174.28
2022-11-05T12:23:43.667Z,100167.28
2022-11-05T12:26:09.925Z,100167.94
2022-11-05T12:29:04.537Z,100164.22
2022-11-05T12:31:30.814Z,100164.00
2022-11-05T12:34:11.713Z,100168.91
2022-11-05T12:36:54.339Z,100166.56
2022-11-05T12:39:20.598Z,100163.72
2022-11-05T12:41:53.103Z,100160.66
2022-11-05T12:44:35.739Z,100165.19
2022-11-05T12:47:02.044Z,100168.47
2022-11-05T12:49:31.130Z,100163.72
2022-11-05T12:52:07.274Z,100168.78
2022-11-05T12:54:36.558Z,100167.97
2022-11-05T12:57:03.629Z,100168.91
2022-11-05T12:59:32.349Z,100171.03
2022-11-05T13:02:07.868Z,100168.47
2022-11-05T13:04:36.631Z,100170.59
2022-11-05T13:07:04.100Z,100167.06
2022-11-05T13:09:38.625Z,100178.53
2022-11-05T13:12:06.605Z,100179.38
2022-11-05T13:14:38.003Z,100179.28
2022-11-05T13:17:33.671Z,100180.88
2022-11-05T13:19:59.905Z,100175.38
2022-11-05T13:22:33.026Z,100182.16
2022-11-05T13:25:01.088Z,100180.34
2022-11-05T13:27:39.507Z,100176.56
2022-11-05T13:30:06.809Z,100174.63
2022-11-05T13:32:37.247Z,100167.56
2022-11-05T13:35:04.561Z,100171.16
2022-11-05T13:37:53.750Z,100172.09
2022-11-05T13:40:21.121Z,100172.50
2022-11-05T13:42:56.445Z,100178.88
2022-11-05T13:45:22.695Z,100171.25
2022-11-05T13:47:55.047Z,100183.97
2022-11-05T13:50:36.598Z,100168.56
2022-11-05T13:53:21.676Z,100182.75
2022-11-05T13:55:56.754Z,100182.09
2022-11-05T13:58:30.092Z,100175.19
2022-11-05T14:01:09.259Z,100184.88
2022-11-05T14:03:35.704Z,100183.38
2022-11-05T14:06:02.984Z,100185.00
2022-11-05T14:08:29.269Z,100180.75
2022-11-05T14:10:58.558Z,100180.84
2022-11-05T14:13:33.938Z,100178.75
2022-11-05T14:16:00.202Z,100179.41
2022-11-05T14:18:37.056Z,100184.69
2022-11-05T14:21:03.976Z,100186.41
2022-11-05T14:23:30.653Z,100182.69
2022-11-05T14:25:57.718Z,100185.91
2022-11-05T14:28:37.593Z,100187.56
2022-11-05T14:31:13.040Z,100184.41
2022-11-05T14:33:39.542Z,100188.88
2022-11-05T14:36:20.809Z,100181.75
2022-11-05T14:38:50.816Z,100188.03
2022-11-05T14:41:17.163Z,100191.63
2022-11-05T14:43:47.704Z,100187.69
2022-11-05T14:46:13.993Z,100192.31
2022-11-05T14:48:47.403Z,100193.38
2022-11-05T14:51:25.801Z,100188.84
2022-11-05T14:53:58.074Z,100186.47
2022-11-05T14:56:24.377Z,100190.94
2022-11-05T14:58:50.678Z,100187.25
2022-11-05T15:01:32.452Z,100191.59
2022-11-05T15:04:01.997Z,100192.31
2022-11-05T15:06:32.523Z,100189.38
2022-11-05T15:09:04.871Z,100193.34
2022-11-05T15:11:38.310Z,100201.06
2022-11-05T15:14:05.637Z,100200.94
2022-11-05T15:16:36.871Z,100200.94
2022-11-05T15:19:03.293Z,100207.94
2022-11-05T15:21:30.922Z,100207.00
2022-11-05T15:23:57.302Z,100207.84
2022-11-05T15:26:37.349Z,100196.31
2022-11-05T15:29:03.773Z,100198.13
2022-11-05T15:31:37.362Z,100186.13
2022-11-05T15:34:18.985Z,100188.97
2022-11-05T15:36:48.322Z,100194.97
2022-11-05T15:39:29.449Z,100201.91
2022-11-05T15:41:56.467Z,100203.56
2022-11-05T15:44:29.815Z,100205.78
2022-11-05T15:47:12.402Z,100218.50
2022-11-05T15:49:38.744Z,100207.75
2022-11-05T15:52:05.057Z,100223.53
2022-11-05T15:54:31.953Z,100211.44
2022-11-05T15:56:58.694Z,100218.56
2022-11-05T15:59:25.922Z,100215.91
2022-11-05T16:01:59.756Z,100222.25
2022-11-05T16:04:27.348Z,100216.50
2022-11-05T16:06:54.427Z,100220.56
2022-11-05T16:09:25.436Z,100225.53
2022-11-05T16:12:10.590Z,100219.78
2022-11-05T16:14:37.018Z,100222.31
2022-11-05T16:17:29.688Z,100218.53
2022-11-05T16:19:56.163Z,100219.47
2022-11-05T16:22:23.655Z,100222.22
2022-11-05T16:24:50.040Z,100220.69
2022-11-05T16:27:19.605Z,100225.97
2022-11-05T16:29:50.385Z,100225.13
2022-11-05T16:32:17.303Z,100222.38
2022-11-05T16:35:13.141Z,100224.88
2022-11-05T16:37:40.895Z,100229.69
2022-11-05T16:40:14.294Z,100231.81
2022-11-05T16:42:40.960Z,100223.19
2022-11-05T16:45:08.089Z,100222.16
2022-11-05T16:47:34.530Z,100228.22
2022-11-05T16:50:00.927Z,100231.13
2022-11-05T16:52:27.260Z,100239.03
2022-11-05T16:54:53.797Z,100247.66
2022-11-05T16:57:29.656Z,100257.47
2022-11-05T16:59:56.847Z,100253.22
2022-11-05T17:02:23.287Z,100261.19
2022-11-05T17:04:49.694Z,100257.97
2022-11-05T17:07:16.013Z,100272.28
2022-11-05T17:09:42.324Z,100272.56
2022-11-05T17:12:09.350Z,100269.25
2022-11-05T17:14:35.702Z,100280.91
2022-11-05T17:17:02.045Z,100289.25
2022-11-05T17:19:28.359Z,100300.06
2022-11-05T17:21:54.718Z,100294.19
2022-11-05T17:24:21.233Z,100303.13
2022-11-05T17:26:47.611Z,100295.47
2022-11-05T17:29:13.990Z,100307.00
2022-11-05T17:31:40.567Z,100311.44
2022-11-05T17:34:07.168Z,100320.19
2022-11-05T17:36:33.519Z,100311.44
2022-11-05T17:38:59.890Z,100313.53
2022-11-05T17:41:26.269Z,100316.25
2022-11-05T17:43:53.256Z,100304.88
2022-11-05T17:46:19.808Z,100300.69
2022-11-05T17:48:46.353Z,100292.84
2022-11-05T17:51:15.046Z,100292.94
2022-11-05T17:53:41.509Z,100291.31
2022-11-05T17:56:08.622Z,100292.31
2022-11-05T17:58:35.074Z,100293.25
2022-11-05T18:01:01.581Z,100287.31
2022-11-05T18:03:27.937Z,100295.47
2022-11-05T18:05:54.251Z,100295.66
2022-11-05T18:08:20.629Z,100303.69
2022-11-05T18:10:47.016Z,100311.53
2022-11-05T18:13:13.717Z,100308.97
2022-11-05T18:15:41.414Z,100301.47
2022-11-05T18:18:08.152Z,100311.31
2022-11-05T18:20:34.458Z,100314.81
2022-11-05T18:23:00.784Z,100315.91
2022-11-05T18:25:27.125Z,100317.00
2022-11-05T18:27:53.447Z,100319.53
2022-11-05T18:30:19.873Z,100317.47
2022-11-05T18:32:46.384Z,100326.03
2022-11-05T18:35:13.383Z,100320.63
2022-11-05T18:37:39.921Z,100315.34
2022-11-05T18:40:06.565Z,100314.66
2022-11-05T18:42:32.862Z,100307.59
2022-11-05T18:44:59.182Z,100317.13
2022-11-05T18:47:25.560Z,100323.34
2022-11-05T18:49:51.883Z,100314.75
2022-11-05T18:52:18.258Z,100315.66
2022-11-05T18:54:44.636Z,100314.81
2022-11-05T18:57:10.958Z,100311.41
2022-11-05T18:59:39.510Z,100307.66
2022-11-05T19:02:07.148Z,100302.16
2022-11-05T19:04:34.913Z,100310.16
2022-11-05T19:07:04.854Z,100312.81
2022-11-05T19:09:32.451Z,100313.72
2022-11-05T19:11:58.849Z,100312.84
2022-11-05T19:14:25.188Z,100318.22
2022-11-05T19:16:51.535Z,100327.06
2022-11-05T19:19:17.898Z,100324.34
2022-11-05T19:21:44.394Z,100328.63
2022-11-05T19:24:16.748Z,100332.94
2022-11-05T19:26:43.614Z,100323.97
2022-11-05T19:29:09.977Z,100332.72
2022-11-05T19:31:36.817Z,100326.50
2022-11-05T19:34:03.265Z,100328.31
2022-11-05T19:36:29.967Z,100332.88
2022-11-05T19:38:57.414Z,100330.47
2022-11-05T19:41:23.811Z,100321.78
2022-11-05T19:43:50.314Z,100313.13
2022-11-05T19:46:18.912Z,100314.81
2022-11-05T19:48:45.565Z,100307.53
2022-11-05T19:51:19.664Z,100306.50
2022-11-05T19:53:45.998Z,100308.88
2022-11-05T19:56:13.788Z,100311.47
2022-11-05T19:58:40.236Z,100305.22
2022-11-05T20:01:06.649Z,100317.50
2022-11-05T20:03:33.048Z,100312.31
2022-11-05T20:06:03.505Z,100304.31
2022-11-05T20:08:29.934Z,100313.22
2022-11-05T20:10:56.331Z,100316.78
2022-11-05T20:13:22.911Z,100312.47
2022-11-05T20:15:49.356Z,100311.53
2022-11-05T20:18:16.454Z,100310.78
2022-11-05T20:20:43.493Z,100312.53
2022-11-05T20:23:09.822Z,100310.06
2022-11-05T20:25:36.147Z,100306.75
2022-11-05T20:28:02.732Z,100298.03
2022-11-05T20:30:29.075Z,100312.09
2022-11-05T20:32:55.855Z,100310.31
2022-11-05T20:35:22.896Z,100318.38
2022-11-05T20:37:53.784Z,100309.78
2022-11-05T20:40:20.592Z,100313.88
2022-11-05T20:42:46.889Z,100306.03
2022-11-05T20:45:13.590Z,100311.41
2022-11-05T20:47:39.936Z,100317.47
2022-11-05T20:50:06.660Z,100308.06
2022-11-05T20:52:33.282Z,100308.16
2022-11-05T20:55:01.003Z,100314.44
2022-11-05T20:57:27.323Z,100320.63
2022-11-05T20:59:53.721Z,100310.88
2022-11-05T21:02:20.168Z,100311.72
2022-11-05T21:04:47.434Z,100309.09
2022-11-05T21:07:13.740Z,100305.75
2022-11-05T21:09:40.177Z,100309.94
2022-11-05T21:12:12.439Z,100314.34
2022-11-05T21:14:39.098Z,100318.53
2022-11-05T21:17:05.747Z,100311.63
2022-11-05T21:19:32.477Z,100303.81
2022-11-05T21:21:58.838Z,100313.00
2022-11-05T21:24:25.145Z,100311.19
2022-11-05T21:26:51.510Z,100304.13
2022-11-05T21:29:18.030Z,100306.63
2022-11-05T21:31:45.103Z,100308.34
2022-11-05T21:34:11.477Z,100302.19
2022-11-05T21:36:37.890Z,100300.66
2022-11-05T21:39:06.663Z,100293.66
2022-11-05T21:41:36.826Z,100290.28
2022-11-05T21:44:04.121Z,100290.41
2022-11-05T21:46:30.752Z,100297.41
2022-11-05T21:48:57.093Z,100293.59
2022-11-05T21:51:42.189Z,100295.22
2022-11-05T21:54:28.048Z,100289.09
2022-11-05T21:57:13.163Z,100284.53
2022-11-05T21:59:48.638Z,100295.06
2022-11-05T22:02:16.456Z,100291.41
2022-11-05T22:04:43.762Z,100292.09
2022-11-05T22:07:11.050Z,100288.47
2022-11-05T22:09:37.398Z,100295.59
2022-11-05T22:12:04.386Z,100293.03
2022-11-05T22:14:30.913Z,100292.16
2022-11-05T22:16:57.433Z,100286.13
2022-11-05T22:19:23.957Z,100285.13
2022-11-05T22:21:50.335Z,100287.69
2022-11-05T22:24:16.749Z,100287.75
2022-11-05T22:26:43.310Z,100290.31
2022-11-05T22:29:09.788Z,100288.47
2022-11-05T22:31:36.878Z,100290.13
2022-11-05T22:34:04.215Z,100294.56
2022-11-05T22:36:30.554Z,100290.22
2022-11-05T22:38:56.849Z,100288.59
2022-11-05T22:41:23.244Z,100296.28
2022-11-05T22:43:49.600Z,100294.41
2022-11-05T22:46:22.482Z,100295.50
2022-11-05T22:48:49.129Z,100297.91
2022-11-05T22:51:16.690Z,100299.53
2022-11-05T22:53:43.201Z,100304.94
2022-11-05T22:56:10.338Z,100298.00
2022-11-05T22:58:36.802Z,100299.75
2022-11-05T23:01:03.779Z,100285.41
2022-11-05T23:03:30.384Z,100292.47
2022-11-05T23:06:34.578Z,100303.00
2022-11-05T23:09:19.699Z,100302.06
2022-11-05T23:11:47.182Z,100291.84
2022-11-05T23:14:13.507Z,100290.41
2022-11-05T23:16:58.752Z,100290.50
2022-11-05T23:19:43.822Z,100284.34
2022-11-05T23:22:41.891Z,100284.25
2022-11-05T23:25:10.452Z,100291.41
2022-11-05T23:27:37.501Z,100291.41
2022-11-05T23:30:06.194Z,100285.34
2022-11-05T23:32:33.438Z,100281.09
2022-11-05T23:34:59.891Z,100291.63
2022-11-05T23:37:46.036Z,100286.28
2022-11-05T23:40:14.827Z,100270.31
2022-11-05T23:43:00.445Z,100274.81
2022-11-05T23:45:45.406Z,100279.34
2022-11-05T23:48:18.059Z,100282.91
2022-11-05T23:50:50.588Z,100268.94
2022-11-05T23:53:16.942Z,100272.25
2022-11-05T23:55:43.295Z,100266.81
2022-11-05T23:58:09.934Z,100267.59
